Terminal Aerodrome Forecast
Issued by NWS

Home | Current Version | Previous Version | Graphics & Text | Print | Product List | Glossary On
Versions: 1 2 3 4 5 6 7 8 9 10 11 12 13 14 15 16 17 18 19 20 21 22 23 24 25 26 27 28 29 30 31 32
000
FTUS43 KLOT 251300 AAA
TAFORD
TAF AMD
KORD 251402Z 2514/2618 20009KT P6SM VCSH SCT080 BKN120
     FM251700 20011G16KT P6SM SCT080 BKN120
     FM260100 19010KT P6SM VCSH OVC080
     FM260400 19010KT 6SM SHRA OVC060 PROB30 2604/2608 4SM TSRA
      OVC040CB
     FM260800 22007KT 6SM BR BKN040
     FM261300 23009KT P6SM BKN040=

USA.gov is the U.S. government's official web portal to all federal, state and local government web resources and services.